Time;durP1;ratioP1;P1;durP2;ratioP2;P2;SDS_P1;SDS_P2;PMS_P1;PMS_P2;Temp;Humidity;BMP_temperature;BMP_pressure;BME280_temperature;BME280_humidity;BME280_pressure;Samples;Min_cycle;Max_cycle;Signal;HPM_P1;HPM_P2
2021/09/05 00:01:50;;;;;;;21.43;14.40;;;;;;;;;;5034642;28;20409;-79
2021/09/05 00:04:16;;;;;;;24.80;17.60;;;;;;;;;;5000459;28;20924;-77
2021/09/05 00:06:42;;;;;;;24.23;16.07;;;;;;;;;;5034429;28;20420;-78
2021/09/05 00:09:08;;;;;;;30.00;19.20;;;;;;;;;;5033644;28;20476;-78
2021/09/05 00:11:34;;;;;;;25.13;17.93;;;;;;;;;;5016552;28;20944;-79
2021/09/05 00:14:00;;;;;;;26.27;15.70;;;;;;;;;;5016592;28;20421;-79
2021/09/05 00:16:26;;;;;;;21.70;15.07;;;;;;;;;;5034196;28;20420;-79
2021/09/05 00:18:52;;;;;;;18.57;14.37;;;;;;;;;;5033733;28;20421;-79
2021/09/05 00:21:18;;;;;;;18.93;14.77;;;;;;;;;;5033912;28;20417;-79
2021/09/05 00:23:44;;;;;;;28.87;15.80;;;;;;;;;;5033923;28;20527;-78
2021/09/05 00:26:10;;;;;;;22.50;15.07;;;;;;;;;;5033892;28;20499;-77
2021/09/05 00:28:37;;;;;;;22.40;15.67;;;;;;;;;;5033436;28;20460;-79
2021/09/05 00:31:03;;;;;;;23.07;15.97;;;;;;;;;;5033723;28;20421;-78
2021/09/05 00:33:29;;;;;;;21.20;14.00;;;;;;;;;;5033507;28;20785;-78
2021/09/05 00:35:55;;;;;;;21.00;14.53;;;;;;;;;;5033775;28;20532;-78
2021/09/05 00:38:21;;;;;;;18.97;14.70;;;;;;;;;;5033719;28;20424;-78
2021/09/05 00:40:47;;;;;;;21.87;14.57;;;;;;;;;;5033346;28;20480;-76
2021/09/05 00:43:13;;;;;;;22.23;14.37;;;;;;;;;;5033628;28;20936;-77
2021/09/05 00:45:39;;;;;;;18.80;13.97;;;;;;;;;;5033516;28;20425;-78
2021/09/05 00:48:05;;;;;;;18.40;13.33;;;;;;;;;;5033589;28;20464;-79
2021/09/05 00:50:31;;;;;;;19.63;13.73;;;;;;;;;;5033108;28;20491;-79
2021/09/05 00:52:57;;;;;;;20.10;13.63;;;;;;;;;;5033538;28;20401;-77
2021/09/05 00:55:25;;;;;;;20.90;14.43;;;;;;;;;;5033703;28;20437;-76
2021/09/05 00:57:51;;;;;;;19.90;14.20;;;;;;;;;;5033435;28;20916;-80
2021/09/05 01:00:19;;;;;;;18.03;14.43;;;;;;;;;;5033000;28;20437;-78
2021/09/05 01:02:46;;;;;;;20.20;14.93;;;;;;;;;;5035196;28;20405;-78
2021/09/05 01:05:13;;;;;;;21.57;15.53;;;;;;;;;;5036473;28;20508;-77
2021/09/05 01:07:39;;;;;;;26.30;16.70;;;;;;;;;;5033490;28;20463;-76
2021/09/05 01:10:05;;;;;;;25.40;17.67;;;;;;;;;;5032880;28;20429;-77
2021/09/05 01:12:31;;;;;;;24.27;17.90;;;;;;;;;;5033297;28;20401;-77
2021/09/05 01:14:57;;;;;;;26.30;16.77;;;;;;;;;;5033247;28;20416;-78
2021/09/05 01:17:23;;;;;;;23.63;17.17;;;;;;;;;;5033151;28;20482;-80
2021/09/05 01:19:49;;;;;;;25.17;15.80;;;;;;;;;;5032748;28;20406;-77
2021/09/05 01:22:15;;;;;;;24.83;16.60;;;;;;;;;;5032998;28;20408;-79
2021/09/05 01:24:42;;;;;;;28.60;17.27;;;;;;;;;;5033149;28;20413;-78
2021/09/05 01:27:08;;;;;;;26.80;17.13;;;;;;;;;;5033219;28;20848;-78
2021/09/05 01:29:34;;;;;;;27.43;17.23;;;;;;;;;;5032573;28;20563;-80
2021/09/05 01:32:00;;;;;;;29.13;17.47;;;;;;;;;;5032821;28;20416;-79
2021/09/05 01:34:26;;;;;;;28.77;16.80;;;;;;;;;;5032936;28;20467;-77
2021/09/05 01:36:53;;;;;;;29.70;18.50;;;;;;;;;;5032999;28;20415;-78
2021/09/05 01:39:20;;;;;;;28.57;17.70;;;;;;;;;;5014967;28;20456;-77
2021/09/05 01:41:46;;;;;;;28.00;17.77;;;;;;;;;;5033058;28;20821;-79
2021/09/05 01:44:14;;;;;;;27.57;18.00;;;;;;;;;;5032955;28;20843;-79
2021/09/05 01:46:40;;;;;;;25.10;17.40;;;;;;;;;;4999093;28;20420;-77
2021/09/05 01:49:06;;;;;;;31.27;17.23;;;;;;;;;;4998543;28;20451;-77
2021/09/05 01:51:32;;;;;;;27.57;17.63;;;;;;;;;;5033161;28;20749;-78
2021/09/05 01:53:58;;;;;;;29.00;18.50;;;;;;;;;;5033115;28;20771;-77
2021/09/05 01:56:25;;;;;;;29.60;18.77;;;;;;;;;;5033006;28;20950;-77
2021/09/05 01:58:51;;;;;;;28.40;17.43;;;;;;;;;;5032394;28;20388;-77
2021/09/05 02:01:17;;;;;;;26.27;17.40;;;;;;;;;;5032802;28;20413;-78
2021/09/05 02:03:43;;;;;;;28.87;16.60;;;;;;;;;;5032965;28;20409;-78
2021/09/05 02:06:09;;;;;;;24.10;16.43;;;;;;;;;;5032707;28;20444;-78
2021/09/05 02:08:35;;;;;;;31.43;16.83;;;;;;;;;;5032387;28;20460;-79
2021/09/05 02:11:01;;;;;;;23.53;16.27;;;;;;;;;;5032826;28;20433;-78
2021/09/05 02:13:27;;;;;;;23.67;16.13;;;;;;;;;;5032633;28;20401;-77
2021/09/05 02:15:53;;;;;;;31.53;18.60;;;;;;;;;;5032712;28;20961;-77
2021/09/05 02:18:19;;;;;;;27.50;18.60;;;;;;;;;;5032658;28;20413;-79
2021/09/05 02:20:45;;;;;;;26.60;17.60;;;;;;;;;;5032205;28;20527;-77
2021/09/05 02:23:11;;;;;;;22.53;16.63;;;;;;;;;;5035089;28;20423;-78
2021/09/05 02:25:37;;;;;;;25.33;16.10;;;;;;;;;;5036407;28;20405;-78
2021/09/05 02:28:03;;;;;;;25.27;14.97;;;;;;;;;;5036115;28;20963;-77
2021/09/05 02:30:29;;;;;;;27.17;17.23;;;;;;;;;;5035580;28;20479;-77
2021/09/05 02:32:55;;;;;;;26.93;14.87;;;;;;;;;;5036164;28;20825;-78
2021/09/05 02:35:21;;;;;;;23.13;14.87;;;;;;;;;;5036008;28;20413;-77
2021/09/05 02:37:47;;;;;;;25.50;16.40;;;;;;;;;;5036026;28;20968;-77
2021/09/05 02:40:13;;;;;;;23.60;14.73;;;;;;;;;;5035408;28;20456;-76
2021/09/05 02:42:39;;;;;;;23.27;15.80;;;;;;;;;;5035786;28;20417;-76
2021/09/05 02:45:06;;;;;;;25.87;15.53;;;;;;;;;;5035956;28;20413;-78
2021/09/05 02:47:32;;;;;;;24.83;15.20;;;;;;;;;;5035785;28;20452;-76
2021/09/05 02:49:58;;;;;;;25.10;15.70;;;;;;;;;;5035515;28;20532;-77
2021/09/05 02:52:24;;;;;;;24.07;16.67;;;;;;;;;;5035700;28;20850;-76
2021/09/05 02:54:50;;;;;;;28.43;19.30;;;;;;;;;;5035612;28;20487;-78
2021/09/05 02:57:16;;;;;;;26.43;17.93;;;;;;;;;;5035579;28;20972;-77
2021/09/05 02:59:42;;;;;;;27.20;15.63;;;;;;;;;;5035387;28;20421;-78
2021/09/05 03:02:08;;;;;;;24.10;16.03;;;;;;;;;;5035861;28;20472;-77
2021/09/05 03:04:34;;;;;;;24.00;15.87;;;;;;;;;;5035702;28;20417;-77
2021/09/05 03:07:00;;;;;;;29.00;17.80;;;;;;;;;;5018129;28;20764;-78
2021/09/05 03:09:26;;;;;;;24.10;16.63;;;;;;;;;;5035062;28;20487;-79
2021/09/05 03:11:52;;;;;;;26.30;16.67;;;;;;;;;;5035491;28;20495;-77
2021/09/05 03:14:18;;;;;;;31.33;18.00;;;;;;;;;;5035481;28;20436;-76
2021/09/05 03:16:44;;;;;;;33.23;20.07;;;;;;;;;;5035268;28;20412;-77
2021/09/05 03:19:11;;;;;;;29.97;18.67;;;;;;;;;;5035102;28;20519;-77
2021/09/05 03:21:38;;;;;;;31.10;18.10;;;;;;;;;;5035543;28;20404;-78
2021/09/05 03:24:04;;;;;;;32.93;17.50;;;;;;;;;;5035078;28;20460;-79
2021/09/05 03:26:30;;;;;;;27.67;17.50;;;;;;;;;;5017256;28;20428;-78
2021/09/05 03:28:56;;;;;;;34.13;17.93;;;;;;;;;;5034400;28;20460;-77
2021/09/05 03:31:22;;;;;;;29.90;17.27;;;;;;;;;;5034977;28;20412;-76
2021/09/05 03:33:48;;;;;;;25.97;16.93;;;;;;;;;;5033835;28;20413;-79
2021/09/05 03:36:14;;;;;;;30.30;18.20;;;;;;;;;;5017416;28;20475;-79
2021/09/05 03:38:40;;;;;;;27.50;17.10;;;;;;;;;;5034434;28;20744;-76
2021/09/05 03:41:06;;;;;;;29.83;17.30;;;;;;;;;;5034601;28;20510;-80
2021/09/05 03:43:32;;;;;;;30.50;18.10;;;;;;;;;;5017376;28;20966;-78
2021/09/05 03:45:57;;;;;;;27.40;17.27;;;;;;;;;;5034657;28;20409;-78
2021/09/05 03:48:23;;;;;;;30.83;17.13;;;;;;;;;;5034549;28;20491;-77
2021/09/05 03:50:49;;;;;;;33.37;18.27;;;;;;;;;;5034157;28;20472;-78
2021/09/05 03:53:15;;;;;;;29.93;19.00;;;;;;;;;;5034711;28;20803;-76
2021/09/05 03:55:42;;;;;;;32.03;19.53;;;;;;;;;;5034554;28;20468;-78
2021/09/05 03:58:08;;;;;;;30.90;19.63;;;;;;;;;;5034479;28;20912;-77
2021/09/05 04:00:34;;;;;;;30.80;17.33;;;;;;;;;;5034150;28;20432;-76
2021/09/05 04:03:00;;;;;;;28.83;16.90;;;;;;;;;;5034374;28;20470;-77
2021/09/05 04:05:26;;;;;;;28.40;17.60;;;;;;;;;;5034347;28;20405;-78
2021/09/05 04:10:30;;;;;;;27.67;17.70;;;;;;;;;;5033818;28;20433;-77
2021/09/05 04:12:57;;;;;;;28.90;17.03;;;;;;;;;;5034188;28;20866;-77
2021/09/05 04:15:23;;;;;;;28.57;17.83;;;;;;;;;;5034305;28;20420;-78
2021/09/05 04:17:49;;;;;;;32.63;17.13;;;;;;;;;;5034307;28;20421;-78
2021/09/05 04:20:15;;;;;;;29.13;16.93;;;;;;;;;;5033638;28;20816;-76
2021/09/05 04:22:41;;;;;;;28.07;17.87;;;;;;;;;;5034021;28;20903;-77
2021/09/05 04:25:07;;;;;;;32.80;18.13;;;;;;;;;;5033965;28;20413;-76
2021/09/05 04:27:34;;;;;;;25.70;16.23;;;;;;;;;;5033741;28;20479;-78
2021/09/05 04:30:00;;;;;;;29.17;18.53;;;;;;;;;;5033527;28;20487;-79
2021/09/05 04:32:26;;;;;;;30.13;17.23;;;;;;;;;;5033808;28;20410;-77
2021/09/05 04:34:52;;;;;;;28.27;16.43;;;;;;;;;;5033717;28;20405;-78
2021/09/05 04:37:18;;;;;;;24.73;16.87;;;;;;;;;;5033522;28;20409;-78
2021/09/05 04:39:44;;;;;;;24.83;15.40;;;;;;;;;;5033155;28;20534;-78
2021/09/05 04:42:11;;;;;;;31.07;16.67;;;;;;;;;;5033658;28;20883;-76
2021/09/05 04:44:40;;;;;;;27.97;17.50;;;;;;;;;;5033656;28;20531;-76
2021/09/05 04:47:07;;;;;;;30.13;18.80;;;;;;;;;;5033522;28;20410;-77
2021/09/05 04:49:33;;;;;;;23.50;16.77;;;;;;;;;;5033138;28;20473;-77
2021/09/05 04:51:59;;;;;;;35.77;18.53;;;;;;;;;;5033554;28;20777;-76
2021/09/05 04:54:25;;;;;;;35.27;21.07;;;;;;;;;;5033509;28;20416;-77
2021/09/05 04:56:52;;;;;;;30.00;18.00;;;;;;;;;;5033423;28;20488;-77
2021/09/05 04:59:18;;;;;;;32.70;19.03;;;;;;;;;;5032957;28;20512;-77
2021/09/05 05:01:43;;;;;;;33.90;19.07;;;;;;;;;;5033334;28;20456;-76
2021/09/05 05:04:09;;;;;;;26.83;17.63;;;;;;;;;;5033416;28;20441;-77
2021/09/05 05:06:38;;;;;;;27.23;18.33;;;;;;;;;;5033348;28;20822;-77
2021/09/05 05:09:04;;;;;;;31.90;17.63;;;;;;;;;;5032748;28;20464;-77
2021/09/05 05:11:30;;;;;;;29.10;17.67;;;;;;;;;;5015855;28;20412;-77
2021/09/05 05:13:56;;;;;;;35.57;19.17;;;;;;;;;;5033326;28;20500;-77
2021/09/05 05:16:22;;;;;;;29.53;17.80;;;;;;;;;;5033190;28;20412;-78
2021/09/05 05:18:49;;;;;;;30.47;19.50;;;;;;;;;;5015314;28;20443;-77
2021/09/05 05:21:15;;;;;;;24.87;17.33;;;;;;;;;;5033062;28;20417;-77
2021/09/05 05:23:40;;;;;;;29.63;18.20;;;;;;;;;;5032925;28;20913;-78
2021/09/05 05:26:07;;;;;;;28.80;18.87;;;;;;;;;;5033042;28;20417;-77
2021/09/05 05:28:33;;;;;;;30.90;19.83;;;;;;;;;;5014941;28;20475;-79
2021/09/05 05:30:59;;;;;;;35.37;19.27;;;;;;;;;;5015298;28;20538;-77
2021/09/05 05:33:25;;;;;;;32.63;18.97;;;;;;;;;;5032943;28;20401;-79
2021/09/05 05:35:51;;;;;;;39.87;23.00;;;;;;;;;;5032826;28;20897;-77
2021/09/05 05:38:17;;;;;;;33.97;21.47;;;;;;;;;;5032890;28;20413;-77
2021/09/05 05:40:43;;;;;;;35.03;21.70;;;;;;;;;;5032489;28;20524;-77
2021/09/05 05:43:09;;;;;;;37.87;21.77;;;;;;;;;;5015353;28;20440;-76
2021/09/05 05:45:35;;;;;;;31.27;21.20;;;;;;;;;;5032675;28;20417;-76
2021/09/05 05:48:01;;;;;;;36.27;21.23;;;;;;;;;;5032734;28;20504;-77
2021/09/05 05:50:27;;;;;;;34.00;20.10;;;;;;;;;;5032461;28;20457;-78
2021/09/05 05:52:53;;;;;;;36.73;21.73;;;;;;;;;;5033026;28;20413;-77
2021/09/05 05:55:20;;;;;;;41.87;22.10;;;;;;;;;;5032886;28;20413;-76
2021/09/05 05:57:46;;;;;;;42.43;22.03;;;;;;;;;;5034865;28;20470;-79
2021/09/05 06:00:12;;;;;;;36.53;20.67;;;;;;;;;;5036215;28;20532;-78
2021/09/05 06:02:38;;;;;;;37.33;20.57;;;;;;;;;;5036730;28;20407;-76
2021/09/05 06:05:05;;;;;;;42.37;23.00;;;;;;;;;;5036633;28;20405;-77
2021/09/05 06:07:31;;;;;;;34.77;19.57;;;;;;;;;;5036590;28;20495;-77
2021/09/05 06:09:57;;;;;;;33.50;19.80;;;;;;;;;;5036027;28;20429;-77
2021/09/05 06:12:23;;;;;;;40.53;23.03;;;;;;;;;;5018759;28;20417;-77
2021/09/05 06:14:49;;;;;;;31.47;20.27;;;;;;;;;;5036776;28;20404;-78
2021/09/05 06:17:15;;;;;;;41.37;23.13;;;;;;;;;;5036723;28;20436;-78
2021/09/05 06:19:41;;;;;;;36.13;20.90;;;;;;;;;;5036714;28;20429;-77
2021/09/05 06:22:07;;;;;;;37.67;23.10;;;;;;;;;;5019480;28;20425;-78
2021/09/05 06:24:33;;;;;;;36.03;21.57;;;;;;;;;;5039405;28;20438;-76
2021/09/05 06:26:59;;;;;;;44.63;23.40;;;;;;;;;;5018559;28;20412;-77
2021/09/05 06:29:25;;;;;;;38.70;23.17;;;;;;;;;;5035847;28;20849;-77
2021/09/05 06:31:51;;;;;;;38.10;21.47;;;;;;;;;;5036122;28;20408;-76
2021/09/05 06:34:17;;;;;;;38.30;24.47;;;;;;;;;;5035864;28;20413;-76
2021/09/05 06:36:43;;;;;;;38.60;23.80;;;;;;;;;;5018255;28;20451;-77
2021/09/05 06:39:09;;;;;;;41.80;24.47;;;;;;;;;;5035478;28;20459;-78
2021/09/05 06:41:35;;;;;;;46.10;24.27;;;;;;;;;;5018111;28;20416;-77
2021/09/05 06:44:01;;;;;;;40.43;25.30;;;;;;;;;;5018019;28;20428;-76
2021/09/05 06:46:27;;;;;;;38.00;23.93;;;;;;;;;;5035613;28;20429;-77
2021/09/05 06:48:53;;;;;;;39.63;23.70;;;;;;;;;;5035380;28;20472;-78
2021/09/05 06:51:19;;;;;;;31.80;22.10;;;;;;;;;;5036222;28;20950;-78
2021/09/05 06:53:45;;;;;;;36.17;22.73;;;;;;;;;;5036077;28;20508;-77
2021/09/05 06:56:11;;;;;;;28.47;20.40;;;;;;;;;;5035921;28;20901;-78
2021/09/05 06:58:38;;;;;;;26.60;20.40;;;;;;;;;;5001274;28;20417;-78
2021/09/05 07:01:04;;;;;;;32.83;18.60;;;;;;;;;;5035512;28;20936;-77
2021/09/05 07:03:30;;;;;;;27.97;19.10;;;;;;;;;;5035612;28;20836;-77
2021/09/05 07:05:56;;;;;;;31.27;19.23;;;;;;;;;;5020100;28;20413;-78
2021/09/05 07:08:22;;;;;;;23.23;18.13;;;;;;;;;;5035361;28;20486;-77
2021/09/05 07:10:48;;;;;;;29.00;19.00;;;;;;;;;;5035077;28;20847;-76
2021/09/05 07:13:14;;;;;;;23.47;17.87;;;;;;;;;;5035364;28;20390;-77
2021/09/05 07:15:40;;;;;;;19.67;15.90;;;;;;;;;;5017640;28;20475;-76
2021/09/05 07:18:06;;;;;;;18.90;15.20;;;;;;;;;;5035486;28;20384;-78
2021/09/05 07:20:32;;;;;;;20.23;15.10;;;;;;;;;;5034822;28;20445;-77
2021/09/05 07:22:58;;;;;;;21.87;16.90;;;;;;;;;;5035302;28;20427;-77
2021/09/05 07:25:26;;;;;;;27.77;16.60;;;;;;;;;;5035233;28;20890;-77
2021/09/05 07:27:52;;;;;;;18.90;14.57;;;;;;;;;;5035124;28;20867;-77
2021/09/05 07:30:18;;;;;;;20.03;16.00;;;;;;;;;;5034684;28;20429;-77
2021/09/05 07:32:44;;;;;;;18.30;14.97;;;;;;;;;;5034915;28;20413;-78
2021/09/05 07:35:10;;;;;;;15.23;13.60;;;;;;;;;;5034875;28;20409;-78
2021/09/05 07:37:37;;;;;;;23.17;15.80;;;;;;;;;;5034938;28;20503;-76
2021/09/05 07:40:03;;;;;;;24.80;15.70;;;;;;;;;;5016995;28;20614;-77
2021/09/05 07:42:29;;;;;;;19.33;14.80;;;;;;;;;;5034751;28;20799;-77
2021/09/05 07:44:57;;;;;;;18.40;14.97;;;;;;;;;;5034588;28;20412;-77
2021/09/05 07:47:23;;;;;;;19.20;15.17;;;;;;;;;;5034831;28;20415;-76
2021/09/05 07:49:49;;;;;;;21.33;15.10;;;;;;;;;;5034475;28;20627;-77
2021/09/05 07:52:15;;;;;;;18.53;14.60;;;;;;;;;;5034652;28;20913;-77
2021/09/05 07:54:41;;;;;;;19.67;15.17;;;;;;;;;;5034455;28;20380;-77
2021/09/05 07:57:07;;;;;;;20.97;15.27;;;;;;;;;;5016863;28;21013;-76
2021/09/05 07:59:33;;;;;;;18.40;14.50;;;;;;;;;;5034021;28;20433;-77
2021/09/05 08:01:59;;;;;;;18.93;15.30;;;;;;;;;;5034926;28;20380;-77
2021/09/05 08:04:25;;;;;;;25.50;16.27;;;;;;;;;;5017078;28;20413;-77
2021/09/05 08:06:51;;;;;;;23.37;16.37;;;;;;;;;;5034552;28;20512;-77
2021/09/05 08:09:17;;;;;;;22.43;16.67;;;;;;;;;;5016617;28;20451;-78
2021/09/05 08:11:43;;;;;;;19.00;14.70;;;;;;;;;;5034446;28;20390;-78
2021/09/05 08:14:09;;;;;;;22.90;14.93;;;;;;;;;;5034381;28;20395;-78
2021/09/05 08:16:37;;;;;;;23.33;14.77;;;;;;;;;;5016854;28;20492;-77
2021/09/05 08:19:03;;;;;;;18.70;14.37;;;;;;;;;;5033755;28;20547;-77
2021/09/05 08:21:29;;;;;;;26.23;17.33;;;;;;;;;;5033248;28;20423;-77
2021/09/05 08:23:55;;;;;;;20.93;15.00;;;;;;;;;;5033796;28;20417;-78
2021/09/05 08:26:23;;;;;;;18.23;15.77;;;;;;;;;;5034172;28;20928;-76
2021/09/05 08:28:49;;;;;;;20.50;14.63;;;;;;;;;;5033399;28;20483;-76
2021/09/05 08:31:15;;;;;;;23.07;15.83;;;;;;;;;;5033765;28;20433;-75
2021/09/05 08:33:41;;;;;;;19.97;16.50;;;;;;;;;;5033804;28;20897;-75
2021/09/05 08:36:07;;;;;;;17.93;14.20;;;;;;;;;;5033487;28;20436;-78
2021/09/05 08:38:33;;;;;;;15.97;13.37;;;;;;;;;;5039352;28;20500;-80
2021/09/05 08:40:59;;;;;;;21.63;14.10;;;;;;;;;;5033371;28;20535;-77
2021/09/05 08:43:25;;;;;;;14.87;13.10;;;;;;;;;;5033179;28;20409;-76
2021/09/05 08:45:52;;;;;;;14.00;12.60;;;;;;;;;;5043652;28;20878;-76
2021/09/05 08:48:18;;;;;;;17.73;14.33;;;;;;;;;;5041990;28;20456;-76
2021/09/05 08:50:45;;;;;;;19.63;14.37;;;;;;;;;;5035324;28;20798;-76
2021/09/05 08:53:11;;;;;;;21.77;15.30;;;;;;;;;;5033620;28;20405;-76
2021/09/05 08:55:37;;;;;;;19.00;14.90;;;;;;;;;;5033537;28;20412;-76
2021/09/05 08:58:04;;;;;;;14.63;12.27;;;;;;;;;;5033225;28;20500;-76
2021/09/05 09:00:30;;;;;;;14.73;13.20;;;;;;;;;;5033216;28;20432;-75
2021/09/05 09:02:58;;;;;;;17.80;15.00;;;;;;;;;;5033697;28;20413;-76
2021/09/05 09:05:41;;;;;;;16.43;12.60;;;;;;;;;;5033147;28;20416;-77
2021/09/05 09:08:11;;;;;;;14.50;12.70;;;;;;;;;;5040234;28;20936;-77
2021/09/05 09:10:57;;;;;;;14.63;13.07;;;;;;;;;;5039616;28;20443;-76
2021/09/05 09:13:23;;;;;;;14.63;12.70;;;;;;;;;;5041310;28;20401;-76
2021/09/05 09:15:50;;;;;;;14.03;12.53;;;;;;;;;;5042782;28;20439;-79
2021/09/05 09:18:22;;;;;;;19.73;12.93;;;;;;;;;;5042457;28;20404;-78
2021/09/05 09:20:48;;;;;;;13.60;12.33;;;;;;;;;;5032579;28;20417;-79
2021/09/05 09:23:19;;;;;;;15.03;13.43;;;;;;;;;;5032703;28;20421;-76
2021/09/05 09:25:54;;;;;;;14.27;12.80;;;;;;;;;;5037017;28;20440;-77
2021/09/05 09:28:23;;;;;;;13.97;12.50;;;;;;;;;;5032880;28;20551;-77
2021/09/05 09:30:50;;;;;;;14.20;11.97;;;;;;;;;;5032699;28;20449;-80
2021/09/05 09:33:23;;;;;;;15.93;12.40;;;;;;;;;;5036409;28;20773;-79
2021/09/05 09:35:51;;;;;;;13.83;12.43;;;;;;;;;;5037413;28;20928;-78
2021/09/05 09:38:17;;;;;;;13.77;12.20;;;;;;;;;;5037439;28;20416;-79
2021/09/05 09:40:43;;;;;;;14.47;12.50;;;;;;;;;;5036664;28;20460;-78
2021/09/05 09:43:20;;;;;;;13.97;12.57;;;;;;;;;;5037152;28;20413;-79
2021/09/05 09:45:46;;;;;;;14.33;12.20;;;;;;;;;;5036894;28;20413;-78
2021/09/05 09:48:21;;;;;;;13.07;11.70;;;;;;;;;;5036917;28;20460;-77
2021/09/05 09:50:47;;;;;;;14.73;13.30;;;;;;;;;;5036684;28;20427;-78
2021/09/05 09:53:13;;;;;;;14.73;12.87;;;;;;;;;;5019387;28;20773;-79
2021/09/05 09:55:41;;;;;;;13.70;11.93;;;;;;;;;;5036724;28;20420;-78
2021/09/05 09:58:07;;;;;;;13.43;12.07;;;;;;;;;;5036669;28;20420;-78
2021/09/05 10:00:33;;;;;;;14.23;12.13;;;;;;;;;;5036505;28;20428;-77
2021/09/05 10:03:00;;;;;;;14.10;12.57;;;;;;;;;;5036789;28;20409;-79
2021/09/05 10:05:30;;;;;;;14.37;12.87;;;;;;;;;;5037208;28;20420;-80
2021/09/05 10:07:56;;;;;;;14.07;12.57;;;;;;;;;;5018881;28;20913;-77
2021/09/05 10:10:23;;;;;;;13.63;12.30;;;;;;;;;;5036154;28;20436;-78
2021/09/05 10:12:50;;;;;;;13.47;12.07;;;;;;;;;;5019024;28;20495;-79
2021/09/05 10:15:18;;;;;;;11.63;10.43;;;;;;;;;;5036427;28;20408;-78
2021/09/05 10:17:45;;;;;;;14.63;11.47;;;;;;;;;;5018813;28;20820;-78
2021/09/05 10:20:11;;;;;;;16.43;11.80;;;;;;;;;;5036017;28;20433;-80
2021/09/05 10:22:37;;;;;;;12.47;11.17;;;;;;;;;;5036487;28;20500;-77
2021/09/05 10:25:04;;;;;;;12.03;10.83;;;;;;;;;;5036198;28;20433;-80
2021/09/05 10:27:31;;;;;;;13.37;12.07;;;;;;;;;;5036191;28;20500;-78
2021/09/05 10:30:09;;;;;;;16.10;10.93;;;;;;;;;;5036043;28;20468;-79
2021/09/05 10:32:42;;;;;;;10.17;9.17;;;;;;;;;;5036202;28;20968;-77
2021/09/05 10:35:26;;;;;;;10.80;9.80;;;;;;;;;;5036092;28;20424;-77
2021/09/05 10:38:11;;;;;;;11.60;9.30;;;;;;;;;;5035979;28;20412;-79
2021/09/05 10:40:43;;;;;;;12.60;8.40;;;;;;;;;;5035501;28;20446;-79
2021/09/05 10:43:09;;;;;;;11.23;10.17;;;;;;;;;;5035549;28;20738;-76
2021/09/05 10:45:36;;;;;;;12.23;8.57;;;;;;;;;;5035875;28;20459;-77
2021/09/05 10:48:02;;;;;;;9.60;8.70;;;;;;;;;;5035513;28;20518;-79
2021/09/05 10:50:32;;;;;;;9.90;8.90;;;;;;;;;;5035379;28;20425;-77
2021/09/05 10:53:13;;;;;;;9.67;8.77;;;;;;;;;;5035828;28;20972;-78
2021/09/05 10:56:17;;;;;;;8.63;7.83;;;;;;;;;;5035588;28;20437;-79
2021/09/05 10:58:54;;;;;;;10.20;8.77;;;;;;;;;;4958382;28;20902;-78
2021/09/05 11:01:26;;;;;;;9.43;8.53;;;;;;;;;;4975088;28;20431;-79
2021/09/05 11:04:10;;;;;;;9.77;8.13;;;;;;;;;;5010352;28;20435;-77
2021/09/05 11:06:44;;;;;;;10.27;9.03;;;;;;;;;;5035659;28;20849;-79
2021/09/05 11:09:22;;;;;;;10.17;8.40;;;;;;;;;;5035334;28;20468;-78
2021/09/05 11:11:59;;;;;;;10.03;9.03;;;;;;;;;;5036338;28;21000;-78
2021/09/05 11:14:40;;;;;;;8.93;8.10;;;;;;;;;;5035245;28;20404;-79
2021/09/05 11:17:09;;;;;;;9.40;8.40;;;;;;;;;;5035304;28;20462;-78
2021/09/05 11:19:36;;;;;;;10.43;8.30;;;;;;;;;;5035038;28;20428;-78
2021/09/05 11:22:10;;;;;;;8.63;7.87;;;;;;;;;;5017416;28;20429;-79
2021/09/05 11:24:36;;;;;;;8.37;7.60;;;;;;;;;;5035501;28;20416;-78
2021/09/05 11:27:03;;;;;;;10.27;8.00;;;;;;;;;;5035567;28;20811;-78
2021/09/05 11:29:29;;;;;;;9.03;7.97;;;;;;;;;;5034768;28;21042;-77
2021/09/05 11:32:02;;;;;;;8.73;7.30;;;;;;;;;;5035172;28;20420;-78
2021/09/05 11:34:28;;;;;;;8.27;7.47;;;;;;;;;;5034930;28;20437;-77
2021/09/05 11:36:54;;;;;;;8.20;7.50;;;;;;;;;;5035303;28;20884;-78
2021/09/05 11:39:20;;;;;;;9.10;7.17;;;;;;;;;;5016960;28;20764;-78
2021/09/05 11:41:52;;;;;;;7.70;7.10;;;;;;;;;;5034854;28;20420;-77
2021/09/05 11:44:32;;;;;;;6.90;6.20;;;;;;;;;;5034751;28;20897;-79
2021/09/05 11:47:11;;;;;;;7.67;6.90;;;;;;;;;;5034598;28;20476;-78
2021/09/05 11:49:46;;;;;;;10.20;7.70;;;;;;;;;;5034243;28;20817;-79
2021/09/05 11:52:12;;;;;;;8.63;7.73;;;;;;;;;;5034615;28;20444;-79
2021/09/05 11:54:38;;;;;;;8.17;7.37;;;;;;;;;;5033746;28;20507;-80
2021/09/05 11:57:04;;;;;;;9.73;8.30;;;;;;;;;;5034606;28;20504;-78
2021/09/05 11:59:31;;;;;;;9.97;7.53;;;;;;;;;;5034121;28;20440;-77
2021/09/05 12:01:57;;;;;;;8.33;7.63;;;;;;;;;;5034791;28;20409;-77
2021/09/05 12:04:24;;;;;;;9.13;8.30;;;;;;;;;;5034440;28;20413;-78
2021/09/05 12:06:50;;;;;;;9.17;8.17;;;;;;;;;;5034353;28;20475;-77
2021/09/05 12:09:29;;;;;;;8.27;6.90;;;;;;;;;;5034036;28;20515;-77
2021/09/05 12:11:56;;;;;;;8.40;7.40;;;;;;;;;;5034459;28;20412;-78
2021/09/05 12:14:29;;;;;;;8.87;8.00;;;;;;;;;;5034848;28;20405;-78
2021/09/05 12:16:55;;;;;;;7.87;7.07;;;;;;;;;;5034645;28;20447;-79
2021/09/05 12:19:21;;;;;;;8.30;7.30;;;;;;;;;;5036716;28;20520;-78
2021/09/05 12:21:55;;;;;;;8.47;7.67;;;;;;;;;;5016789;28;20978;-79
2021/09/05 12:24:21;;;;;;;7.77;6.63;;;;;;;;;;5034166;28;20401;-78
2021/09/05 12:26:48;;;;;;;8.23;7.47;;;;;;;;;;5033881;28;20416;-79
2021/09/05 12:29:14;;;;;;;7.07;6.23;;;;;;;;;;5016036;28;20476;-79
2021/09/05 12:31:43;;;;;;;6.67;5.90;;;;;;;;;;5033923;28;20717;-78
2021/09/05 12:34:10;;;;;;;6.47;5.87;;;;;;;;;;5015959;28;20478;-78
2021/09/05 12:36:36;;;;;;;7.30;6.37;;;;;;;;;;5033751;28;20416;-80
2021/09/05 12:39:03;;;;;;;6.90;6.30;;;;;;;;;;5033003;28;20463;-77
2021/09/05 12:41:30;;;;;;;7.20;6.57;;;;;;;;;;5033469;28;20412;-79
2021/09/05 12:43:58;;;;;;;7.30;6.40;;;;;;;;;;5016168;28;20500;-76
2021/09/05 12:46:36;;;;;;;7.33;6.57;;;;;;;;;;5033619;28;20409;-77
2021/09/05 12:49:08;;;;;;;7.43;6.60;;;;;;;;;;5033061;28;20499;-77
2021/09/05 12:51:45;;;;;;;8.47;6.83;;;;;;;;;;5033574;28;20405;-77
2021/09/05 12:54:12;;;;;;;7.50;6.80;;;;;;;;;;5033548;28;20392;-78
2021/09/05 12:56:40;;;;;;;6.83;6.13;;;;;;;;;;5033664;28;20463;-76
2021/09/05 12:59:06;;;;;;;7.43;6.70;;;;;;;;;;5033025;28;20433;-75
2021/09/05 13:01:32;;;;;;;6.47;5.80;;;;;;;;;;5033516;28;20421;-76
2021/09/05 13:03:59;;;;;;;7.53;6.07;;;;;;;;;;5033201;28;20416;-76
2021/09/05 13:06:26;;;;;;;6.90;6.30;;;;;;;;;;5033348;28;20444;-77
2021/09/05 13:08:52;;;;;;;7.43;6.70;;;;;;;;;;5033070;28;20471;-77
2021/09/05 13:11:19;;;;;;;14.07;5.83;;;;;;;;;;5033108;28;20405;-78
2021/09/05 13:13:46;;;;;;;6.77;6.17;;;;;;;;;;5033180;28;20451;-77
2021/09/05 13:16:15;;;;;;;5.87;5.27;;;;;;;;;;5015575;28;20456;-77
2021/09/05 13:18:45;;;;;;;7.53;5.70;;;;;;;;;;5032858;28;20409;-77
2021/09/05 13:21:14;;;;;;;6.23;5.73;;;;;;;;;;5032993;28;20416;-76
2021/09/05 13:23:41;;;;;;;6.03;5.53;;;;;;;;;;5033095;28;20409;-77
2021/09/05 13:26:08;;;;;;;6.33;5.73;;;;;;;;;;5033008;28;20516;-77
2021/09/05 13:28:34;;;;;;;6.10;5.50;;;;;;;;;;5032649;28;20518;-78
2021/09/05 13:31:00;;;;;;;5.50;5.00;;;;;;;;;;5015449;28;20860;-78
2021/09/05 13:33:26;;;;;;;6.87;6.27;;;;;;;;;;5032991;28;20405;-78
2021/09/05 13:35:53;;;;;;;9.57;5.53;;;;;;;;;;5033050;28;20774;-78
2021/09/05 13:38:19;;;;;;;6.37;5.77;;;;;;;;;;5033004;28;20417;-77
2021/09/05 13:40:45;;;;;;;6.53;5.90;;;;;;;;;;5032546;28;20499;-75
2021/09/05 13:43:11;;;;;;;5.40;4.90;;;;;;;;;;5032924;28;20416;-75
2021/09/05 13:45:37;;;;;;;6.10;5.60;;;;;;;;;;5032782;28;20417;-76
2021/09/05 13:48:03;;;;;;;7.70;5.90;;;;;;;;;;5015069;28;20956;-78
2021/09/05 13:50:29;;;;;;;5.87;5.23;;;;;;;;;;5014721;28;20503;-75
2021/09/05 13:52:56;;;;;;;6.17;5.57;;;;;;;;;;5033401;28;20448;-76
2021/09/05 13:55:22;;;;;;;5.80;5.20;;;;;;;;;;5015316;28;20468;-76
2021/09/05 13:57:48;;;;;;;7.00;5.27;;;;;;;;;;5032711;28;20925;-76
2021/09/05 14:00:14;;;;;;;5.50;5.00;;;;;;;;;;5032370;28;20445;-75
2021/09/05 14:02:40;;;;;;;5.60;4.97;;;;;;;;;;5032903;28;20905;-76
2021/09/05 14:05:07;;;;;;;5.87;5.33;;;;;;;;;;5033056;28;20448;-78
2021/09/05 14:07:32;;;;;;;5.70;5.23;;;;;;;;;;5032851;28;20428;-75
2021/09/05 14:09:58;;;;;;;6.47;5.50;;;;;;;;;;5032298;28;20464;-79
2021/09/05 14:12:24;;;;;;;6.00;5.47;;;;;;;;;;5032796;28;20543;-79
2021/09/05 14:14:50;;;;;;;6.00;5.50;;;;;;;;;;5032630;28;20409;-77
2021/09/05 14:17:16;;;;;;;5.93;5.33;;;;;;;;;;5032890;28;20408;-79
2021/09/05 14:19:42;;;;;;;6.20;5.70;;;;;;;;;;5035676;28;20437;-75
2021/09/05 14:22:08;;;;;;;6.03;5.43;;;;;;;;;;5036997;28;20425;-76
2021/09/05 14:24:36;;;;;;;5.93;5.33;;;;;;;;;;5037838;28;20409;-77
2021/09/05 14:27:05;;;;;;;5.10;4.70;;;;;;;;;;5040692;28;20463;-75